sensor_id;sensor_type;location;lat;lon;timestamp;P1;durP1;ratioP1;P2;durP2;ratioP2
66826;SDS011;53727;45.242;19.796;2022-08-21T11:12:58;8.60;;;7.80;;
66826;SDS011;53727;45.242;19.796;2022-08-21T11:14:58;9.13;;;6.63;;
66826;SDS011;53727;45.242;19.796;2022-08-21T11:20:35;9.77;;;8.85;;
66826;SDS011;53727;45.242;19.796;2022-08-21T11:23:04;10.45;;;7.47;;
66826;SDS011;53727;45.242;19.796;2022-08-21T11:25:37;9.65;;;6.93;;
66826;SDS011;53727;45.242;19.796;2022-08-21T11:28:10;8.57;;;6.23;;
66826;SDS011;53727;45.242;19.796;2022-08-21T11:31:04;10.77;;;7.15;;
66826;SDS011;53727;45.242;19.796;2022-08-21T11:33:30;11.13;;;7.85;;
66826;SDS011;53727;45.242;19.796;2022-08-21T11:36:00;11.70;;;7.50;;
66826;SDS011;53727;45.242;19.796;2022-08-21T11:38:38;9.23;;;8.27;;
66826;SDS011;53727;45.242;19.796;2022-08-21T11:51:07;10.05;;;7.05;;
66826;SDS011;53727;45.242;19.796;2022-08-21T11:56:08;9.77;;;6.90;;
66826;SDS011;53727;45.242;19.796;2022-08-21T11:58:36;9.00;;;6.87;;
66826;SDS011;53727;45.242;19.796;2022-08-21T12:01:07;11.52;;;6.70;;
66826;SDS011;53727;45.242;19.796;2022-08-21T12:03:35;11.35;;;8.32;;
66826;SDS011;53727;45.242;19.796;2022-08-21T12:06:10;9.18;;;6.22;;
66826;SDS011;53727;45.242;19.796;2022-08-21T12:08:41;7.93;;;6.50;;
66826;SDS011;53727;45.242;19.796;2022-08-21T12:16:32;6.50;;;6.00;;
66826;SDS011;53727;45.242;19.796;2022-08-21T12:19:05;6.88;;;5.90;;
66826;SDS011;53727;45.242;19.796;2022-08-21T12:21:32;6.43;;;5.80;;
66826;SDS011;53727;45.242;19.796;2022-08-21T12:24:04;12.45;;;6.15;;
66826;SDS011;53727;45.242;19.796;2022-08-21T12:26:32;7.75;;;7.10;;
66826;SDS011;53727;45.242;19.796;2022-08-21T12:29:07;7.15;;;6.55;;
66826;SDS011;53727;45.242;19.796;2022-08-21T12:31:36;8.85;;;8.13;;
66826;SDS011;53727;45.242;19.796;2022-08-21T12:34:12;8.80;;;7.88;;
66826;SDS011;53727;45.242;19.796;2022-08-21T12:39:36;10.20;;;9.18;;
66826;SDS011;53727;45.242;19.796;2022-08-21T12:44:46;9.90;;;8.90;;
66826;SDS011;53727;45.242;19.796;2022-08-21T12:47:16;11.32;;;10.23;;
66826;SDS011;53727;45.242;19.796;2022-08-21T12:52:16;11.38;;;10.13;;
66826;SDS011;53727;45.242;19.796;2022-08-21T12:54:45;10.93;;;9.82;;
66826;SDS011;53727;45.242;19.796;2022-08-21T12:57:24;11.20;;;10.07;;
66826;SDS011;53727;45.242;19.796;2022-08-21T12:59:54;11.80;;;10.10;;
66826;SDS011;53727;45.242;19.796;2022-08-21T13:02:22;11.60;;;10.48;;
66826;SDS011;53727;45.242;19.796;2022-08-21T13:04:49;10.90;;;9.95;;
66826;SDS011;53727;45.242;19.796;2022-08-21T13:07:19;11.45;;;10.30;;
66826;SDS011;53727;45.242;19.796;2022-08-21T13:09:49;11.35;;;10.25;;
66826;SDS011;53727;45.242;19.796;2022-08-21T13:12:16;11.70;;;10.43;;
66826;SDS011;53727;45.242;19.796;2022-08-21T13:14:44;10.93;;;9.70;;
66826;SDS011;53727;45.242;19.796;2022-08-21T13:17:12;11.80;;;10.63;;
66826;SDS011;53727;45.242;19.796;2022-08-21T13:19:40;11.35;;;9.43;;
66826;SDS011;53727;45.242;19.796;2022-08-21T13:22:12;9.45;;;8.48;;
66826;SDS011;53727;45.242;19.796;2022-08-21T13:24:38;8.57;;;7.80;;
66826;SDS011;53727;45.242;19.796;2022-08-21T13:27:15;9.68;;;8.38;;
66826;SDS011;53727;45.242;19.796;2022-08-21T13:29:42;9.07;;;8.18;;
66826;SDS011;53727;45.242;19.796;2022-08-21T13:32:16;7.88;;;7.00;;
66826;SDS011;53727;45.242;19.796;2022-08-21T13:34:44;9.13;;;6.85;;
66826;SDS011;53727;45.242;19.796;2022-08-21T13:37:10;10.82;;;7.68;;
66826;SDS011;53727;45.242;19.796;2022-08-21T13:39:37;9.93;;;7.47;;
66826;SDS011;53727;45.242;19.796;2022-08-21T13:42:04;10.77;;;7.90;;
66826;SDS011;53727;45.242;19.796;2022-08-21T13:44:35;10.93;;;8.60;;
66826;SDS011;53727;45.242;19.796;2022-08-21T13:47:03;8.27;;;7.28;;
66826;SDS011;53727;45.242;19.796;2022-08-21T13:49:31;9.40;;;8.50;;
66826;SDS011;53727;45.242;19.796;2022-08-21T13:51:58;8.57;;;7.82;;
66826;SDS011;53727;45.242;19.796;2022-08-21T13:54:25;9.65;;;7.85;;
66826;SDS011;53727;45.242;19.796;2022-08-21T13:56:52;9.00;;;7.72;;
66826;SDS011;53727;45.242;19.796;2022-08-21T13:59:29;9.77;;;8.30;;
66826;SDS011;53727;45.242;19.796;2022-08-21T14:01:57;8.45;;;7.55;;
66826;SDS011;53727;45.242;19.796;2022-08-21T14:06:50;8.32;;;7.53;;
66826;SDS011;53727;45.242;19.796;2022-08-21T14:11:48;9.15;;;7.72;;
66826;SDS011;53727;45.242;19.796;2022-08-21T14:16:55;7.70;;;7.05;;
66826;SDS011;53727;45.242;19.796;2022-08-21T14:19:26;8.43;;;7.72;;
66826;SDS011;53727;45.242;19.796;2022-08-21T14:22:12;8.30;;;7.18;;
66826;SDS011;53727;45.242;19.796;2022-08-21T14:24:58;7.78;;;7.07;;
66826;SDS011;53727;45.242;19.796;2022-08-21T14:27:26;7.80;;;7.10;;
66826;SDS011;53727;45.242;19.796;2022-08-21T14:30:01;7.78;;;7.03;;
66826;SDS011;53727;45.242;19.796;2022-08-21T14:32:41;9.13;;;8.20;;
66826;SDS011;53727;45.242;19.796;2022-08-21T14:35:07;9.57;;;8.60;;
66826;SDS011;53727;45.242;19.796;2022-08-21T14:37:33;10.27;;;9.25;;
66826;SDS011;53727;45.242;19.796;2022-08-21T14:40:00;12.75;;;10.23;;
66826;SDS011;53727;45.242;19.796;2022-08-21T14:42:26;9.10;;;8.30;;
66826;SDS011;53727;45.242;19.796;2022-08-21T14:44:53;9.35;;;8.23;;
66826;SDS011;53727;45.242;19.796;2022-08-21T14:47:24;11.77;;;9.73;;
66826;SDS011;53727;45.242;19.796;2022-08-21T14:49:50;10.23;;;9.23;;
66826;SDS011;53727;45.242;19.796;2022-08-21T14:52:18;9.52;;;8.55;;
66826;SDS011;53727;45.242;19.796;2022-08-21T14:54:45;10.32;;;9.15;;
66826;SDS011;53727;45.242;19.796;2022-08-21T14:57:10;10.15;;;9.25;;
66826;SDS011;53727;45.242;19.796;2022-08-21T14:59:38;9.32;;;8.50;;
66826;SDS011;53727;45.242;19.796;2022-08-21T15:02:04;10.23;;;8.73;;
66826;SDS011;53727;45.242;19.796;2022-08-21T15:04:31;10.20;;;9.20;;
66826;SDS011;53727;45.242;19.796;2022-08-21T15:06:57;11.38;;;9.68;;
66826;SDS011;53727;45.242;19.796;2022-08-21T15:09:23;9.48;;;8.57;;
66826;SDS011;53727;45.242;19.796;2022-08-21T15:11:50;9.73;;;8.80;;
66826;SDS011;53727;45.242;19.796;2022-08-21T15:14:20;10.43;;;9.50;;
66826;SDS011;53727;45.242;19.796;2022-08-21T15:16:49;11.52;;;9.60;;
66826;SDS011;53727;45.242;19.796;2022-08-21T15:19:16;9.90;;;8.32;;
66826;SDS011;53727;45.242;19.796;2022-08-21T15:21:42;9.98;;;8.70;;
66826;SDS011;53727;45.242;19.796;2022-08-21T15:24:08;10.32;;;9.20;;
66826;SDS011;53727;45.242;19.796;2022-08-21T15:26:34;9.18;;;8.25;;
66826;SDS011;53727;45.242;19.796;2022-08-21T15:29:00;11.43;;;10.20;;
66826;SDS011;53727;45.242;19.796;2022-08-21T15:31:27;10.75;;;9.27;;
66826;SDS011;53727;45.242;19.796;2022-08-21T15:33:53;10.20;;;8.20;;
66826;SDS011;53727;45.242;19.796;2022-08-21T15:36:20;11.52;;;10.13;;
66826;SDS011;53727;45.242;19.796;2022-08-21T15:38:46;10.25;;;9.23;;
66826;SDS011;53727;45.242;19.796;2022-08-21T15:41:12;12.10;;;10.90;;
66826;SDS011;53727;45.242;19.796;2022-08-21T15:43:45;12.75;;;10.93;;
66826;SDS011;53727;45.242;19.796;2022-08-21T15:46:14;10.10;;;9.10;;
66826;SDS011;53727;45.242;19.796;2022-08-21T15:48:42;11.90;;;10.68;;
66826;SDS011;53727;45.242;19.796;2022-08-21T15:51:09;12.85;;;10.18;;
66826;SDS011;53727;45.242;19.796;2022-08-21T15:53:36;13.30;;;10.90;;
66826;SDS011;53727;45.242;19.796;2022-08-21T15:56:05;14.10;;;11.18;;
66826;SDS011;53727;45.242;19.796;2022-08-21T15:58:36;12.27;;;11.18;;
66826;SDS011;53727;45.242;19.796;2022-08-21T16:01:02;10.00;;;9.10;;
66826;SDS011;53727;45.242;19.796;2022-08-21T16:03:27;12.30;;;11.00;;
66826;SDS011;53727;45.242;19.796;2022-08-21T16:05:53;13.10;;;11.85;;
66826;SDS011;53727;45.242;19.796;2022-08-21T16:08:21;13.57;;;11.18;;
66826;SDS011;53727;45.242;19.796;2022-08-21T16:10:48;11.85;;;10.82;;
66826;SDS011;53727;45.242;19.796;2022-08-21T16:13:16;10.20;;;9.13;;
66826;SDS011;53727;45.242;19.796;2022-08-21T16:15:47;13.25;;;10.02;;
66826;SDS011;53727;45.242;19.796;2022-08-21T16:18:13;12.30;;;10.13;;
66826;SDS011;53727;45.242;19.796;2022-08-21T16:20:39;15.43;;;13.80;;
66826;SDS011;53727;45.242;19.796;2022-08-21T16:23:05;15.20;;;13.65;;
66826;SDS011;53727;45.242;19.796;2022-08-21T16:25:33;15.40;;;13.80;;
66826;SDS011;53727;45.242;19.796;2022-08-21T16:28:02;15.63;;;14.13;;
66826;SDS011;53727;45.242;19.796;2022-08-21T16:30:30;15.75;;;13.10;;
66826;SDS011;53727;45.242;19.796;2022-08-21T16:32:56;15.73;;;12.25;;
66826;SDS011;53727;45.242;19.796;2022-08-21T16:35:24;18.83;;;12.52;;
66826;SDS011;53727;45.242;19.796;2022-08-21T16:37:50;13.00;;;11.80;;
66826;SDS011;53727;45.242;19.796;2022-08-21T16:40:16;12.80;;;11.60;;
66826;SDS011;53727;45.242;19.796;2022-08-21T16:42:42;14.85;;;13.45;;
66826;SDS011;53727;45.242;19.796;2022-08-21T16:45:11;13.75;;;12.35;;
66826;SDS011;53727;45.242;19.796;2022-08-21T16:47:39;8.98;;;8.07;;
66826;SDS011;53727;45.242;19.796;2022-08-21T16:50:07;10.35;;;9.20;;
66826;SDS011;53727;45.242;19.796;2022-08-21T16:52:33;19.45;;;12.40;;
66826;SDS011;53727;45.242;19.796;2022-08-21T16:55:00;16.10;;;10.55;;
66826;SDS011;53727;45.242;19.796;2022-08-21T16:57:26;10.52;;;6.35;;
66826;SDS011;53727;45.242;19.796;2022-08-21T16:59:52;11.57;;;6.57;;
66826;SDS011;53727;45.242;19.796;2022-08-21T17:02:37;12.88;;;5.30;;
66826;SDS011;53727;45.242;19.796;2022-08-21T17:05:06;8.70;;;5.45;;
66826;SDS011;53727;45.242;19.796;2022-08-21T17:07:33;11.32;;;5.40;;
66826;SDS011;53727;45.242;19.796;2022-08-21T17:09:59;10.25;;;5.32;;
66826;SDS011;53727;45.242;19.796;2022-08-21T17:12:25;9.50;;;5.50;;
66826;SDS011;53727;45.242;19.796;2022-08-21T17:14:51;10.25;;;5.97;;
66826;SDS011;53727;45.242;19.796;2022-08-21T17:17:17;10.30;;;6.18;;
66826;SDS011;53727;45.242;19.796;2022-08-21T17:19:46;9.07;;;5.90;;
66826;SDS011;53727;45.242;19.796;2022-08-21T17:22:11;16.17;;;7.05;;
66826;SDS011;53727;45.242;19.796;2022-08-21T17:24:37;12.38;;;6.00;;
66826;SDS011;53727;45.242;19.796;2022-08-21T17:27:03;11.55;;;6.38;;
66826;SDS011;53727;45.242;19.796;2022-08-21T17:29:36;13.57;;;6.50;;
66826;SDS011;53727;45.242;19.796;2022-08-21T17:32:06;15.15;;;6.25;;
66826;SDS011;53727;45.242;19.796;2022-08-21T17:34:36;7.47;;;5.88;;
66826;SDS011;53727;45.242;19.796;2022-08-21T17:37:03;11.23;;;6.15;;
66826;SDS011;53727;45.242;19.796;2022-08-21T17:39:29;11.02;;;6.03;;
66826;SDS011;53727;45.242;19.796;2022-08-21T17:41:55;11.68;;;5.68;;
66826;SDS011;53727;45.242;19.796;2022-08-21T17:44:25;11.35;;;5.32;;
66826;SDS011;53727;45.242;19.796;2022-08-21T17:46:51;10.32;;;5.22;;
66826;SDS011;53727;45.242;19.796;2022-08-21T17:49:17;10.55;;;4.97;;
66826;SDS011;53727;45.242;19.796;2022-08-21T17:51:43;11.32;;;4.88;;
66826;SDS011;53727;45.242;19.796;2022-08-21T17:54:09;8.23;;;4.53;;
66826;SDS011;53727;45.242;19.796;2022-08-21T17:56:38;7.38;;;4.65;;
66826;SDS011;53727;45.242;19.796;2022-08-21T17:59:06;15.30;;;6.60;;
66826;SDS011;53727;45.242;19.796;2022-08-21T18:01:33;7.07;;;3.88;;
66826;SDS011;53727;45.242;19.796;2022-08-21T18:04:03;7.93;;;4.22;;
66826;SDS011;53727;45.242;19.796;2022-08-21T18:06:28;9.88;;;7.13;;
66826;SDS011;53727;45.242;19.796;2022-08-21T18:08:54;10.85;;;6.63;;
66826;SDS011;53727;45.242;19.796;2022-08-21T18:11:22;9.50;;;5.68;;
66826;SDS011;53727;45.242;19.796;2022-08-21T18:13:51;9.00;;;4.82;;
66826;SDS011;53727;45.242;19.796;2022-08-21T18:16:19;8.32;;;6.05;;
66826;SDS011;53727;45.242;19.796;2022-08-21T18:18:46;8.30;;;5.63;;
66826;SDS011;53727;45.242;19.796;2022-08-21T18:21:13;10.60;;;6.50;;
66826;SDS011;53727;45.242;19.796;2022-08-21T18:23:39;6.78;;;5.72;;
66826;SDS011;53727;45.242;19.796;2022-08-21T18:26:05;8.68;;;4.30;;
66826;SDS011;53727;45.242;19.796;2022-08-21T18:28:31;6.20;;;4.50;;
66826;SDS011;53727;45.242;19.796;2022-08-21T18:30:59;4.93;;;4.15;;
66826;SDS011;53727;45.242;19.796;2022-08-21T18:33:25;7.95;;;4.30;;
66826;SDS011;53727;45.242;19.796;2022-08-21T18:35:51;4.90;;;4.25;;
66826;SDS011;53727;45.242;19.796;2022-08-21T18:38:16;4.85;;;3.65;;
66826;SDS011;53727;45.242;19.796;2022-08-21T18:40:46;7.10;;;3.15;;
66826;SDS011;53727;45.242;19.796;2022-08-21T18:43:14;6.18;;;3.38;;
66826;SDS011;53727;45.242;19.796;2022-08-21T18:45:40;9.60;;;3.85;;
66826;SDS011;53727;45.242;19.796;2022-08-21T18:48:07;6.68;;;4.10;;
66826;SDS011;53727;45.242;19.796;2022-08-21T18:50:36;7.18;;;5.68;;
66826;SDS011;53727;45.242;19.796;2022-08-21T18:53:04;5.45;;;4.95;;
66826;SDS011;53727;45.242;19.796;2022-08-21T18:55:30;6.22;;;5.40;;
66826;SDS011;53727;45.242;19.796;2022-08-21T18:57:56;10.07;;;6.13;;
66826;SDS011;53727;45.242;19.796;2022-08-21T19:00:25;7.50;;;5.20;;
66826;SDS011;53727;45.242;19.796;2022-08-21T19:02:57;7.72;;;5.50;;
66826;SDS011;53727;45.242;19.796;2022-08-21T19:05:24;6.65;;;4.80;;
66826;SDS011;53727;45.242;19.796;2022-08-21T19:07:50;6.25;;;4.43;;
66826;SDS011;53727;45.242;19.796;2022-08-21T19:10:17;7.80;;;5.18;;
66826;SDS011;53727;45.242;19.796;2022-08-21T19:12:43;6.38;;;5.38;;
66826;SDS011;53727;45.242;19.796;2022-08-21T19:15:11;6.13;;;5.63;;
66826;SDS011;53727;45.242;19.796;2022-08-21T19:17:39;7.22;;;5.75;;
66826;SDS011;53727;45.242;19.796;2022-08-21T19:20:07;7.32;;;5.00;;
66826;SDS011;53727;45.242;19.796;2022-08-21T19:22:37;8.02;;;6.28;;
66826;SDS011;53727;45.242;19.796;2022-08-21T19:25:04;8.43;;;5.00;;
66826;SDS011;53727;45.242;19.796;2022-08-21T19:27:31;6.72;;;3.47;;
66826;SDS011;53727;45.242;19.796;2022-08-21T19:29:57;7.57;;;4.40;;
66826;SDS011;53727;45.242;19.796;2022-08-21T19:32:23;6.28;;;4.22;;
66826;SDS011;53727;45.242;19.796;2022-08-21T19:34:52;5.55;;;4.85;;
66826;SDS011;53727;45.242;19.796;2022-08-21T19:37:18;8.80;;;5.88;;
66826;SDS011;53727;45.242;19.796;2022-08-21T19:39:44;8.70;;;6.35;;
66826;SDS011;53727;45.242;19.796;2022-08-21T19:42:11;7.57;;;6.82;;
66826;SDS011;53727;45.242;19.796;2022-08-21T19:44:37;7.43;;;5.80;;
66826;SDS011;53727;45.242;19.796;2022-08-21T19:47:04;7.13;;;4.70;;
66826;SDS011;53727;45.242;19.796;2022-08-21T19:49:38;6.40;;;5.22;;
66826;SDS011;53727;45.242;19.796;2022-08-21T19:52:05;7.75;;;5.55;;
66826;SDS011;53727;45.242;19.796;2022-08-21T19:54:31;6.50;;;3.90;;
66826;SDS011;53727;45.242;19.796;2022-08-21T19:57:00;6.18;;;3.70;;
66826;SDS011;53727;45.242;19.796;2022-08-21T19:59:28;8.32;;;5.75;;
66826;SDS011;53727;45.242;19.796;2022-08-21T20:01:55;7.63;;;4.13;;
66826;SDS011;53727;45.242;19.796;2022-08-21T20:04:21;6.53;;;5.85;;
66826;SDS011;53727;45.242;19.796;2022-08-21T20:06:47;7.65;;;5.18;;
66826;SDS011;53727;45.242;19.796;2022-08-21T20:09:13;6.78;;;6.03;;
66826;SDS011;53727;45.242;19.796;2022-08-21T20:11:42;7.75;;;5.93;;
66826;SDS011;53727;45.242;19.796;2022-08-21T20:14:16;8.20;;;5.82;;
66826;SDS011;53727;45.242;19.796;2022-08-21T20:16:45;7.65;;;6.78;;
66826;SDS011;53727;45.242;19.796;2022-08-21T20:19:12;8.90;;;5.50;;
66826;SDS011;53727;45.242;19.796;2022-08-21T20:21:39;16.42;;;5.60;;
66826;SDS011;53727;45.242;19.796;2022-08-21T20:24:04;12.27;;;6.25;;
66826;SDS011;53727;45.242;19.796;2022-08-21T20:26:31;11.20;;;5.32;;
66826;SDS011;53727;45.242;19.796;2022-08-21T20:28:58;9.63;;;5.57;;
66826;SDS011;53727;45.242;19.796;2022-08-21T20:31:24;12.02;;;5.50;;
66826;SDS011;53727;45.242;19.796;2022-08-21T20:33:50;8.68;;;6.05;;
66826;SDS011;53727;45.242;19.796;2022-08-21T20:36:16;8.68;;;5.80;;
66826;SDS011;53727;45.242;19.796;2022-08-21T20:38:43;8.77;;;5.28;;
66826;SDS011;53727;45.242;19.796;2022-08-21T20:41:09;10.38;;;5.55;;
66826;SDS011;53727;45.242;19.796;2022-08-21T20:43:35;11.10;;;4.60;;
66826;SDS011;53727;45.242;19.796;2022-08-21T20:46:02;8.60;;;4.63;;
66826;SDS011;53727;45.242;19.796;2022-08-21T20:48:36;6.57;;;5.93;;
66826;SDS011;53727;45.242;19.796;2022-08-21T20:53:35;8.95;;;4.63;;
66826;SDS011;53727;45.242;19.796;2022-08-21T20:56:16;7.32;;;5.30;;
66826;SDS011;53727;45.242;19.796;2022-08-21T20:59:05;7.88;;;5.53;;
66826;SDS011;53727;45.242;19.796;2022-08-21T21:01:52;5.15;;;4.65;;
66826;SDS011;53727;45.242;19.796;2022-08-21T21:04:36;9.10;;;7.22;;
66826;SDS011;53727;45.242;19.796;2022-08-21T21:07:09;7.03;;;6.32;;
66826;SDS011;53727;45.242;19.796;2022-08-21T21:09:41;9.27;;;6.78;;
66826;SDS011;53727;45.242;19.796;2022-08-21T21:12:15;11.18;;;6.72;;
66826;SDS011;53727;45.242;19.796;2022-08-21T21:14:48;7.30;;;6.57;;
66826;SDS011;53727;45.242;19.796;2022-08-21T21:17:34;9.80;;;5.57;;
66826;SDS011;53727;45.242;19.796;2022-08-21T21:23:02;8.05;;;7.20;;
66826;SDS011;53727;45.242;19.796;2022-08-21T21:25:52;8.82;;;7.93;;
66826;SDS011;53727;45.242;19.796;2022-08-21T21:28:25;8.45;;;7.63;;
66826;SDS011;53727;45.242;19.796;2022-08-21T21:31:06;6.95;;;5.72;;
66826;SDS011;53727;45.242;19.796;2022-08-21T21:33:32;7.32;;;4.47;;
66826;SDS011;53727;45.242;19.796;2022-08-21T21:36:03;5.55;;;4.88;;
66826;SDS011;53727;45.242;19.796;2022-08-21T21:38:46;8.60;;;6.40;;
66826;SDS011;53727;45.242;19.796;2022-08-21T21:41:33;6.13;;;5.45;;
66826;SDS011;53727;45.242;19.796;2022-08-21T21:44:35;5.97;;;5.18;;
66826;SDS011;53727;45.242;19.796;2022-08-21T21:49:46;7.45;;;6.25;;
66826;SDS011;53727;45.242;19.796;2022-08-21T22:00:36;6.63;;;4.00;;
66826;SDS011;53727;45.242;19.796;2022-08-21T22:03:14;8.68;;;5.80;;
66826;SDS011;53727;45.242;19.796;2022-08-21T22:16:00;9.30;;;8.02;;
66826;SDS011;53727;45.242;19.796;2022-08-21T22:18:35;10.07;;;9.05;;
66826;SDS011;53727;45.242;19.796;2022-08-21T22:23:45;11.07;;;9.98;;
66826;SDS011;53727;45.242;19.796;2022-08-21T22:26:14;11.43;;;8.63;;
66826;SDS011;53727;45.242;19.796;2022-08-21T22:28:43;11.80;;;10.18;;
66826;SDS011;53727;45.242;19.796;2022-08-21T22:33:40;12.90;;;11.80;;
66826;SDS011;53727;45.242;19.796;2022-08-21T22:36:13;12.77;;;11.57;;
66826;SDS011;53727;45.242;19.796;2022-08-21T22:38:44;13.73;;;11.70;;
66826;SDS011;53727;45.242;19.796;2022-08-21T22:41:15;14.20;;;12.90;;
66826;SDS011;53727;45.242;19.796;2022-08-21T22:43:52;14.10;;;12.82;;
66826;SDS011;53727;45.242;19.796;2022-08-21T22:46:24;14.77;;;13.38;;
66826;SDS011;53727;45.242;19.796;2022-08-21T22:48:56;15.15;;;13.40;;
66826;SDS011;53727;45.242;19.796;2022-08-21T22:51:38;14.52;;;12.93;;
66826;SDS011;53727;45.242;19.796;2022-08-21T22:54:12;14.48;;;13.05;;
66826;SDS011;53727;45.242;19.796;2022-08-21T22:56:56;14.13;;;12.73;;
66826;SDS011;53727;45.242;19.796;2022-08-21T22:59:29;18.17;;;13.55;;
66826;SDS011;53727;45.242;19.796;2022-08-21T23:02:54;14.90;;;13.40;;
66826;SDS011;53727;45.242;19.796;2022-08-21T23:07:49;13.05;;;11.30;;
66826;SDS011;53727;45.242;19.796;2022-08-21T23:10:29;13.60;;;12.20;;
66826;SDS011;53727;45.242;19.796;2022-08-21T23:12:58;13.48;;;12.10;;
66826;SDS011;53727;45.242;19.796;2022-08-21T23:15:29;13.50;;;11.38;;
66826;SDS011;53727;45.242;19.796;2022-08-21T23:18:06;12.23;;;11.03;;
66826;SDS011;53727;45.242;19.796;2022-08-21T23:20:49;14.40;;;11.27;;
66826;SDS011;53727;45.242;19.796;2022-08-21T23:23:50;12.63;;;11.32;;
66826;SDS011;53727;45.242;19.796;2022-08-21T23:26:31;11.98;;;10.48;;
66826;SDS011;53727;45.242;19.796;2022-08-21T23:29:26;11.65;;;10.07;;
66826;SDS011;53727;45.242;19.796;2022-08-21T23:32:20;11.70;;;10.52;;
66826;SDS011;53727;45.242;19.796;2022-08-21T23:38:02;11.60;;;10.40;;
66826;SDS011;53727;45.242;19.796;2022-08-21T23:40:49;11.63;;;10.60;;
66826;SDS011;53727;45.242;19.796;2022-08-21T23:43:43;11.65;;;10.65;;
66826;SDS011;53727;45.242;19.796;2022-08-21T23:46:39;10.85;;;9.80;;
